KBOK/BOK METAR and TAF weather

Enter ICAO airport designator
Station Type Date Time Source
KBOK METAR 2019/12/07 09:56 UTC NOAA

KBOK 070956Z AUTO 14009KT 10SM -RA OVC055 13/08 A2972 RMK AO2 RAE14B38 SLP063 P0000 T01330083


Station Type Date Time Source
KBOK Decoded METAR 2019/12/07 09:56 UTC NOAA

Brookings, Brookings Airport, OR, United States (KBOK) 42-04-28N 124-17-24W
Dec 07, 2019 - 04:56 AM EST / 2019.12.07 0956 UTC
Wind: from the SE (140 degrees) at 10 MPH (9 KT):0
Visibility: 10 mile(s):0
Sky conditions: overcast
Weather: light rain
Precipitation last hour: A trace
Temperature: 55.9 F (13.3 C)
Dew Point: 46.9 F (8.3 C)
Relative Humidity: 71%
Pressure (altimeter): 29.72 in. Hg (1006 hPa)
ob: KBOK 070956Z AUTO 14009KT 10SM -RA OVC055 13/08 A2972 RMK AO2 RAE14B38 SLP063 P0000 T01330083
cycle: 10

Station Type Date Time Source
KBOK TAF UTC NOAA

Error!

Example: see airport list